This is the latest recevied weather packets stored in our database for station/object JR5YHL-13. If no packets are shown the sender has not sent any weather packets the latest 10 day(s).
| Time | Temp. | Humidity | Pressure | Rain* | Wind** | Luminosity | Snow |
|---|---|---|---|---|---|---|---|
| 1777460889 | 19.44° C | 74% | 1016.2 hPa | 0 mm | - | - | - |
| 1777460291 | 19.44° C | 71% | 1016.1 hPa | 0 mm | - | - | - |
| 1777459694 | 19.44° C | 72% | 1015.9 hPa | 0 mm | - | - | - |
| 1777459096 | 20° C | 73% | 1015.7 hPa | 0 mm | - | - | - |
| 1777458499 | 20.56° C | 72% | 1015.3 hPa | 0 mm | - | - | - |
| 1777457901 | 20.56° C | 67% | 1015.2 hPa | 0 mm | - | - | - |
| 1777457303 | 20.56° C | 69% | 1015 hPa | 0 mm | - | - | - |
| 1777456706 | 21.11° C | 71% | 1014.7 hPa | 0 mm | - | - | - |
| 1777456108 | 20.56° C | 69% | 1014.8 hPa | 0 mm | - | - | - |
| 1777455510 | 21.11° C | 65% | 1014.6 hPa | 0 mm | - | - | - |
| 1777454912 | 21.67° C | 64% | 1014.3 hPa | 0 mm | - | - | - |
| 1777454314 | 22.22° C | 57% | 1014.2 hPa | 0 mm | - | - | - |
| 1777453717 | 22.22° C | 55% | 1013.9 hPa | 0 mm | - | - | - |
| 1777453119 | 22.78° C | 56% | 1013.8 hPa | 0 mm | - | - | - |
| 1777452521 | 22.78° C | 51% | 1013.8 hPa | 0 mm | - | - | - |
| 1777451923 | 23.33° C | 49% | 1013.5 hPa | 0 mm | - | - | - |
| 1777451325 | 23.33° C | 45% | 1013.5 hPa | 0 mm | - | - | - |
| 1777450727 | 23.33° C | 47% | 1013.5 hPa | 0 mm | - | - | - |
| 1777450129 | 23.33° C | 46% | 1013.5 hPa | 0 mm | - | - | - |
| 1777449531 | 23.33° C | 46% | 1013.3 hPa | 0 mm | - | - | - |
| 1777448933 | 23.33° C | 45% | 1013.3 hPa | 0 mm | - | - | - |
| 1777448335 | 23.33° C | 42% | 1013.2 hPa | 0 mm | - | - | - |
| 1777447737 | 23.33° C | 44% | 1013 hPa | 0 mm | - | - | - |
| 1777447139 | 23.33° C | 41% | 1012.9 hPa | 0 mm | - | - | - |
| 1777446542 | 23.89° C | 40% | 1012.6 hPa | 0 mm | - | - | - |
* Rain latest hour (hover to see other rain measurements)
** Current wind speed in m/s (hover to see current wind gust speed)